Time;durP1;ratioP1;P1;durP2;ratioP2;P2;SDS_P1;SDS_P2;PMS_P1;PMS_P2;Temp;Humidity;BMP_temperature;BMP_pressure;BME280_temperature;BME280_humidity;BME280_pressure;Samples;Min_cycle;Max_cycle;Signal;HPM_P1;HPM_P2
2020/12/25 00:00:22;;;;;;;4.18;2.88;;;4.30;99.90;;;;;;4875779;29;20053;-79
2020/12/25 00:02:49;;;;;;;1.33;0.82;;;4.30;99.90;;;;;;4906215;23;20520;-81
2020/12/25 00:05:16;;;;;;;2.28;1.27;;;4.30;99.90;;;;;;4912984;29;20585;-79
2020/12/25 00:07:42;;;;;;;2.28;1.10;;;4.30;99.90;;;;;;4900970;29;20060;-81
2020/12/25 00:10:14;;;;;;;1.30;1.08;;;4.30;99.90;;;;;;4916495;29;20044;-81
2020/12/25 00:12:43;;;;;;;1.10;0.90;;;4.20;99.90;;;;;;4913216;29;20057;-81
2020/12/25 00:15:15;;;;;;;0.85;0.68;;;4.20;99.90;;;;;;4897251;29;20044;-81
2020/12/25 00:17:47;;;;;;;1.98;0.95;;;4.20;99.90;;;;;;4896283;29;20181;-81
2020/12/25 00:20:13;;;;;;;1.58;1.00;;;4.20;99.90;;;;;;4897298;29;20052;-81
2020/12/25 00:22:40;;;;;;;0.93;0.70;;;4.20;99.90;;;;;;4897086;29;20048;-81
2020/12/25 00:25:07;;;;;;;1.38;0.90;;;4.20;99.90;;;;;;4912857;29;20520;-81
2020/12/25 00:27:38;;;;;;;1.33;0.88;;;4.10;99.90;;;;;;4882156;29;20049;-82
2020/12/25 00:30:05;;;;;;;1.30;1.00;;;4.10;99.90;;;;;;4897003;29;20050;-81
2020/12/25 00:32:32;;;;;;;3.20;1.02;;;4.10;99.90;;;;;;4897008;29;20049;-81
2020/12/25 00:35:03;;;;;;;1.10;0.93;;;4.10;99.90;;;;;;4882140;29;20070;-80
2020/12/25 00:37:30;;;;;;;1.83;1.10;;;4.10;99.90;;;;;;4928541;29;20056;-81
2020/12/25 00:39:56;;;;;;;5.18;2.08;;;4.10;99.90;;;;;;4912708;29;20092;-81
2020/12/25 00:42:28;;;;;;;2.00;1.50;;;4.10;99.90;;;;;;4882167;29;20058;-81
2020/12/25 00:44:55;;;;;;;2.25;1.40;;;4.10;99.90;;;;;;4896847;29;20108;-81
2020/12/25 00:47:26;;;;;;;1.88;1.25;;;4.10;99.90;;;;;;4913308;29;20049;-81
2020/12/25 00:49:53;;;;;;;1.58;1.23;;;4.20;99.90;;;;;;4881293;29;20104;-81
2020/12/25 00:52:25;;;;;;;1.88;1.50;;;4.20;99.90;;;;;;4896634;29;20041;-81
2020/12/25 00:54:51;;;;;;;1.60;1.30;;;4.20;99.90;;;;;;4896466;29;20124;-81
2020/12/25 00:57:27;;;;;;;2.33;1.45;;;4.20;99.90;;;;;;4896771;29;20053;-81
2020/12/25 01:00:22;;;;;;;2.22;1.35;;;4.20;99.90;;;;;;4899661;29;20527;-81
2020/12/25 01:02:49;;;;;;;2.50;2.15;;;4.30;99.90;;;;;;4896610;29;20041;-81
2020/12/25 01:05:21;;;;;;;2.40;1.75;;;4.20;99.90;;;;;;4896821;29;20045;-81
2020/12/25 01:07:47;;;;;;;1.63;1.08;;;4.20;99.90;;;;;;4928173;29;20598;-81
2020/12/25 01:10:19;;;;;;;1.15;1.05;;;4.10;99.90;;;;;;4881728;29;20064;-81
2020/12/25 01:12:51;;;;;;;1.27;1.13;;;4.00;99.90;;;;;;4913157;29;20045;-80
2020/12/25 01:15:22;;;;;;;2.10;1.20;;;3.90;99.90;;;;;;4881733;29;20063;-80
2020/12/25 01:17:49;;;;;;;1.17;1.08;;;3.70;99.90;;;;;;4896605;29;20508;-80
2020/12/25 01:20:16;;;;;;;1.05;0.93;;;3.60;99.90;;;;;;4912695;29;20048;-81
2020/12/25 01:22:43;;;;;;;1.17;1.00;;;3.50;99.90;;;;;;4912467;29;20171;-80
2020/12/25 01:25:10;;;;;;;0.70;0.60;;;3.40;99.90;;;;;;4880782;29;20060;-80
2020/12/25 01:27:41;;;;;;;0.80;0.70;;;3.30;99.90;;;;;;4896389;29;20055;-81
2020/12/25 01:30:08;;;;;;;0.88;0.73;;;3.30;99.90;;;;;;4884454;29;20401;-81
2020/12/25 01:32:40;;;;;;;1.10;0.70;;;3.20;99.90;;;;;;4910244;23;20053;-81
2020/12/25 01:35:06;;;;;;;0.47;0.38;;;3.00;99.90;;;;;;4881177;29;20055;-81
2020/12/25 01:37:38;;;;;;;0.52;0.50;;;3.00;99.90;;;;;;4882064;29;20048;-81
2020/12/25 01:40:10;;;;;;;0.52;0.50;;;2.80;99.90;;;;;;4881851;29;20049;-81
2020/12/25 01:42:41;;;;;;;0.40;0.40;;;2.70;99.90;;;;;;4896101;29;20052;-81
2020/12/25 01:45:13;;;;;;;0.43;0.40;;;2.70;99.90;;;;;;4896795;29;20229;-81
2020/12/25 01:47:45;;;;;;;0.70;0.57;;;2.60;99.90;;;;;;4896244;29;20116;-81
2020/12/25 01:50:13;;;;;;;2.28;0.50;;;2.50;99.90;;;;;;4896549;29;20045;-81
2020/12/25 01:52:46;;;;;;;0.40;0.40;;;2.50;99.90;;;;;;4895826;29;20067;-81
2020/12/25 01:55:20;;;;;;;0.30;0.30;;;2.40;99.90;;;;;;4880846;29;20496;-81
2020/12/25 01:57:56;;;;;;;0.30;0.20;;;2.20;99.90;;;;;;4881702;29;20136;-81
2020/12/25 02:00:32;;;;;;;0.40;0.40;;;2.20;99.90;;;;;;4896570;29;20053;-81
2020/12/25 02:03:04;;;;;;;0.38;0.38;;;2.10;99.90;;;;;;4880682;29;20576;-81
2020/12/25 02:05:36;;;;;;;1.95;0.40;;;2.00;99.90;;;;;;4865656;29;20045;-81
2020/12/25 02:08:08;;;;;;;0.32;0.30;;;2.10;99.90;;;;;;4880744;29;20040;-81
2020/12/25 02:10:40;;;;;;;0.43;0.43;;;2.00;99.90;;;;;;4880712;29;20048;-81
2020/12/25 02:13:08;;;;;;;0.60;0.50;;;2.10;99.90;;;;;;4865153;29;20045;-81
2020/12/25 02:15:41;;;;;;;0.60;0.57;;;2.10;99.90;;;;;;4880631;29;20466;-82
2020/12/25 02:18:08;;;;;;;0.47;0.47;;;2.00;99.90;;;;;;4896099;29;20048;-81
2020/12/25 02:20:39;;;;;;;0.52;0.50;;;2.00;99.90;;;;;;4896026;29;20045;-81
2020/12/25 02:23:06;;;;;;;0.70;0.50;;;2.00;99.90;;;;;;4895601;29;20045;-81
2020/12/25 02:25:38;;;;;;;0.47;0.47;;;2.00;99.90;;;;;;4881038;29;20504;-81
2020/12/25 02:28:10;;;;;;;1.38;0.60;;;1.90;99.90;;;;;;4881094;29;20113;-81
2020/12/25 02:30:36;;;;;;;0.68;0.50;;;1.90;99.90;;;;;;4895792;29;20045;-81
2020/12/25 02:33:08;;;;;;;0.60;0.50;;;1.90;99.90;;;;;;4865203;29;20505;-81
2020/12/25 02:35:39;;;;;;;0.40;0.40;;;1.90;99.90;;;;;;4895816;29;20049;-81
2020/12/25 02:38:11;;;;;;;0.50;0.50;;;1.90;99.90;;;;;;4880912;29;20064;-81
2020/12/25 02:40:38;;;;;;;1.52;0.50;;;1.90;99.90;;;;;;4894879;29;20056;-81
2020/12/25 02:43:10;;;;;;;0.47;0.45;;;1.90;99.90;;;;;;5217987;23;20048;-81
2020/12/25 02:45:36;;;;;;;0.40;0.40;;;1.90;99.90;;;;;;4898765;29;20116;-81
2020/12/25 02:48:04;;;;;;;0.50;0.50;;;1.80;99.90;;;;;;4898589;29;20087;-81
2020/12/25 02:50:35;;;;;;;1.65;0.60;;;1.80;99.90;;;;;;4899364;29;20045;-82
2020/12/25 02:53:07;;;;;;;0.50;0.50;;;1.80;99.90;;;;;;4899089;29;20124;-81
2020/12/25 02:55:33;;;;;;;0.50;0.50;;;1.80;99.90;;;;;;4899021;29;20051;-82
2020/12/25 02:58:00;;;;;;;0.40;0.40;;;1.80;99.90;;;;;;4883229;29;20059;-82
2020/12/25 03:00:32;;;;;;;0.80;0.57;;;1.80;99.90;;;;;;4899517;29;20052;-82
2020/12/25 03:02:58;;;;;;;0.43;0.40;;;1.80;99.90;;;;;;4882990;29;20048;-81
2020/12/25 03:05:30;;;;;;;1.38;1.02;;;1.80;99.90;;;;;;4898672;29;20087;-81
2020/12/25 03:07:57;;;;;;;0.50;0.50;;;1.90;99.90;;;;;;4882861;29;20052;-81
2020/12/25 03:10:23;;;;;;;1.63;0.40;;;1.80;99.90;;;;;;4882982;29;20045;-82
2020/12/25 03:12:55;;;;;;;0.60;0.50;;;1.80;99.90;;;;;;4883497;29;20512;-81
2020/12/25 03:15:22;;;;;;;1.13;0.40;;;1.80;99.90;;;;;;4898423;29;20048;-81
2020/12/25 03:17:48;;;;;;;0.52;0.43;;;1.90;99.90;;;;;;4882833;29;20060;-81
2020/12/25 03:20:20;;;;;;;0.47;0.40;;;1.90;99.90;;;;;;4899008;29;20053;-81
2020/12/25 03:22:47;;;;;;;0.80;0.60;;;1.90;99.90;;;;;;4898125;29;20524;-82
2020/12/25 03:25:14;;;;;;;3.30;0.40;;;1.80;99.90;;;;;;4882554;29;20063;-81
2020/12/25 03:27:40;;;;;;;0.60;0.55;;;1.90;99.90;;;;;;4897943;29;20056;-81
2020/12/25 03:30:12;;;;;;;0.77;0.52;;;1.90;99.90;;;;;;4883260;29;20423;-81
2020/12/25 03:32:39;;;;;;;1.85;1.20;;;1.90;99.90;;;;;;4897806;29;20564;-81
2020/12/25 03:35:10;;;;;;;2.20;1.30;;;1.90;99.90;;;;;;4883045;29;20053;-81
2020/12/25 03:37:42;;;;;;;0.63;0.50;;;1.90;99.90;;;;;;4897969;29;20045;-81
2020/12/25 03:40:14;;;;;;;0.90;0.63;;;1.90;99.90;;;;;;4882862;29;20131;-81
2020/12/25 03:42:41;;;;;;;0.90;0.60;;;1.90;99.90;;;;;;4882172;29;20104;-81
2020/12/25 03:45:12;;;;;;;0.80;0.50;;;1.90;99.90;;;;;;4882793;29;20052;-81
2020/12/25 03:47:44;;;;;;;0.90;0.70;;;1.80;99.90;;;;;;4897545;29;20076;-81
2020/12/25 03:50:15;;;;;;;0.73;0.60;;;1.80;99.90;;;;;;4897698;29;20123;-81
2020/12/25 03:52:47;;;;;;;1.08;0.60;;;1.80;99.90;;;;;;4897265;29;20171;-81
2020/12/25 03:55:14;;;;;;;0.50;0.40;;;1.80;99.90;;;;;;4897464;29;20087;-80
2020/12/25 03:57:45;;;;;;;1.30;1.00;;;1.80;99.90;;;;;;4897451;29;20056;-81
2020/12/25 04:00:12;;;;;;;1.40;0.80;;;1.80;99.90;;;;;;4881934;29;20135;-81
2020/12/25 04:02:44;;;;;;;1.55;0.60;;;1.80;99.90;;;;;;4897340;29;20461;-81
2020/12/25 04:05:16;;;;;;;0.90;0.60;;;1.70;99.90;;;;;;4882521;29;20052;-81
2020/12/25 04:07:43;;;;;;;0.90;0.70;;;1.70;99.90;;;;;;4881726;29;20109;-81
2020/12/25 04:10:14;;;;;;;0.90;0.63;;;1.70;99.90;;;;;;4898231;29;20080;-81
2020/12/25 04:12:41;;;;;;;1.42;1.08;;;1.60;99.90;;;;;;4897081;29;20115;-81
2020/12/25 04:15:12;;;;;;;0.80;0.73;;;1.60;99.90;;;;;;4898120;29;20104;-81
2020/12/25 04:17:44;;;;;;;0.93;0.63;;;1.70;99.90;;;;;;4897927;29;20056;-81
2020/12/25 04:20:16;;;;;;;2.03;0.70;;;1.60;99.90;;;;;;4882312;29;20063;-81
2020/12/25 04:22:42;;;;;;;1.13;0.80;;;1.60;99.90;;;;;;4897099;29;20147;-81
2020/12/25 04:25:09;;;;;;;1.17;0.80;;;1.60;99.90;;;;;;4881614;29;20044;-81
2020/12/25 04:27:36;;;;;;;2.58;1.30;;;1.60;99.90;;;;;;4881657;29;20143;-81
2020/12/25 04:30:03;;;;;;;1.33;0.77;;;1.60;99.90;;;;;;4897398;29;20047;-81
2020/12/25 04:32:30;;;;;;;2.92;0.80;;;1.60;99.90;;;;;;4881743;29;20048;-81
2020/12/25 04:35:02;;;;;;;1.00;0.80;;;1.50;99.90;;;;;;4897023;29;20044;-81
2020/12/25 04:37:33;;;;;;;1.23;0.98;;;1.50;99.90;;;;;;4896918;29;20052;-81
2020/12/25 04:40:00;;;;;;;1.80;1.00;;;1.50;99.90;;;;;;4896791;29;20052;-81
2020/12/25 04:42:39;;;;;;;0.90;0.70;;;1.40;99.90;;;;;;4896743;29;20123;-81
2020/12/25 04:45:11;;;;;;;1.80;1.08;;;1.40;99.90;;;;;;4881899;29;20048;-81
2020/12/25 04:47:38;;;;;;;1.23;0.80;;;1.30;99.90;;;;;;4881182;29;20045;-81
2020/12/25 04:50:05;;;;;;;1.38;0.88;;;1.30;99.90;;;;;;4897085;29;20044;-82
2020/12/25 04:52:32;;;;;;;1.13;0.80;;;1.30;99.90;;;;;;4912482;29;20049;-81
2020/12/25 04:54:59;;;;;;;1.38;0.90;;;1.40;99.90;;;;;;4897035;29;20508;-81
2020/12/25 04:57:25;;;;;;;0.75;0.70;;;1.30;99.90;;;;;;4896496;29;20091;-82
2020/12/25 04:59:52;;;;;;;1.10;0.70;;;1.30;99.90;;;;;;4896612;29;20045;-81
2020/12/25 05:02:24;;;;;;;0.90;0.80;;;1.30;99.90;;;;;;4896568;29;20136;-81
2020/12/25 05:04:55;;;;;;;1.10;0.85;;;1.40;99.90;;;;;;4885297;29;20511;-80
2020/12/25 05:07:27;;;;;;;1.20;0.93;;;1.30;99.90;;;;;;4900841;29;20056;-81
2020/12/25 05:09:59;;;;;;;1.58;0.90;;;1.40;99.90;;;;;;4901511;29;20131;-81
2020/12/25 05:12:33;;;;;;;1.10;0.82;;;1.40;99.90;;;;;;4900428;29;20144;-81
2020/12/25 05:15:07;;;;;;;1.02;0.70;;;1.40;99.90;;;;;;4900433;29;20052;-81
2020/12/25 05:17:41;;;;;;;1.20;1.05;;;1.50;99.90;;;;;;4900554;29;20068;-81
2020/12/25 05:20:09;;;;;;;1.48;1.10;;;1.50;99.90;;;;;;4884652;29;20423;-81
2020/12/25 05:22:41;;;;;;;1.60;1.20;;;1.50;99.90;;;;;;4900211;29;20099;-79
2020/12/25 05:25:12;;;;;;;1.75;1.25;;;1.40;99.90;;;;;;4885464;29;20650;-81
2020/12/25 05:27:44;;;;;;;1.70;1.45;;;1.40;99.90;;;;;;4900192;29;20049;-81
2020/12/25 05:30:17;;;;;;;1.67;1.25;;;1.40;99.90;;;;;;4901199;29;20044;-81
2020/12/25 05:32:51;;;;;;;1.57;1.20;;;1.40;99.90;;;;;;4900149;29;20069;-81
2020/12/25 05:35:21;;;;;;;1.30;0.95;;;1.40;99.90;;;;;;4884772;29;20100;-81
2020/12/25 05:37:55;;;;;;;1.58;1.27;;;1.50;99.90;;;;;;4900980;29;20049;-81
2020/12/25 05:40:26;;;;;;;2.63;1.20;;;1.50;99.90;;;;;;4900890;29;20075;-81
2020/12/25 05:42:53;;;;;;;2.08;1.30;;;1.50;99.90;;;;;;4899819;29;20054;-81
2020/12/25 05:45:25;;;;;;;1.70;1.35;;;1.50;99.90;;;;;;4885045;29;20056;-81
2020/12/25 05:48:12;;;;;;;3.72;1.52;;;1.50;99.90;;;;;;4899742;29;20053;-79
2020/12/25 05:50:41;;;;;;;2.60;1.25;;;1.50;99.90;;;;;;4884344;29;20049;-81
2020/12/25 05:53:13;;;;;;;1.92;1.27;;;1.50;99.90;;;;;;4899991;29;20072;-81
2020/12/25 05:55:40;;;;;;;1.38;1.05;;;1.50;99.90;;;;;;4901028;29;20500;-81
2020/12/25 05:58:11;;;;;;;1.80;1.42;;;1.50;99.90;;;;;;4899848;29;20057;-81
2020/12/25 06:00:44;;;;;;;2.63;1.55;;;1.60;99.90;;;;;;4899644;29;20088;-81
2020/12/25 06:03:16;;;;;;;5.10;3.63;;;1.60;99.90;;;;;;4899658;29;20132;-80
2020/12/25 06:05:46;;;;;;;4.00;3.33;;;1.50;99.90;;;;;;4884080;29;20143;-81
2020/12/25 06:08:25;;;;;;;5.57;3.58;;;1.60;99.90;;;;;;4899312;29;20049;-81
2020/12/25 06:11:00;;;;;;;5.80;4.07;;;1.60;99.90;;;;;;4884116;29;20048;-81
2020/12/25 06:13:52;;;;;;;3.08;2.15;;;1.60;99.90;;;;;;4899577;29;20052;-81
2020/12/25 06:16:21;;;;;;;4.38;3.05;;;1.60;99.90;;;;;;4899507;29;20467;-80
2020/12/25 06:18:56;;;;;;;3.88;2.97;;;1.50;99.90;;;;;;4899276;29;20049;-81
2020/12/25 06:21:49;;;;;;;3.08;2.28;;;1.50;99.90;;;;;;4899283;29;20052;-81
2020/12/25 06:24:26;;;;;;;3.63;2.38;;;1.50;99.90;;;;;;4899085;29;20143;-80
2020/12/25 06:27:00;;;;;;;3.15;2.15;;;1.50;99.90;;;;;;4884284;29;20435;-80
2020/12/25 06:29:32;;;;;;;3.03;2.22;;;1.50;99.90;;;;;;4898937;29;20135;-81
2020/12/25 06:32:30;;;;;;;2.50;1.73;;;1.50;99.90;;;;;;4899032;29;20049;-80
2020/12/25 06:34:59;;;;;;;4.60;2.17;;;1.60;99.90;;;;;;4859877;29;20057;-80
2020/12/25 06:37:30;;;;;;;3.42;2.10;;;1.60;99.90;;;;;;4877321;29;20585;-81
2020/12/25 06:40:07;;;;;;;4.90;2.67;;;1.60;99.90;;;;;;4847066;29;20056;-80
2020/12/25 06:42:39;;;;;;;2.20;1.50;;;1.60;99.90;;;;;;4861578;29;20129;-81
2020/12/25 06:45:13;;;;;;;2.60;1.80;;;1.50;99.90;;;;;;4861404;29;20069;-80
2020/12/25 06:47:45;;;;;;;20.73;14.82;;;1.50;99.90;;;;;;4861497;29;20049;-81
2020/12/25 06:50:16;;;;;;;3.72;2.90;;;1.50;99.90;;;;;;4876362;29;20056;-81
2020/12/25 06:52:57;;;;;;;2.50;1.92;;;1.50;99.90;;;;;;4976040;23;20132;-80
2020/12/25 06:55:43;;;;;;;3.28;1.90;;;1.50;99.90;;;;;;4898625;29;20161;-81
2020/12/25 06:58:10;;;;;;;3.35;1.83;;;1.40;99.90;;;;;;4898775;29;20053;-81
2020/12/25 07:00:42;;;;;;;3.47;2.10;;;1.40;99.90;;;;;;4898557;29;20419;-80
2020/12/25 07:03:14;;;;;;;3.03;2.03;;;1.50;99.90;;;;;;4898370;29;20040;-80
2020/12/25 07:05:47;;;;;;;3.70;1.90;;;1.50;99.90;;;;;;4898506;29;20052;-81
2020/12/25 07:08:33;;;;;;;3.45;2.38;;;1.50;99.90;;;;;;4898503;29;20476;-80
2020/12/25 07:11:09;;;;;;;3.47;2.38;;;1.50;99.90;;;;;;4913936;29;20045;-80
2020/12/25 07:13:43;;;;;;;3.47;2.42;;;1.50;99.90;;;;;;4903869;23;20049;-80
2020/12/25 07:16:15;;;;;;;4.40;2.22;;;1.50;99.90;;;;;;4898125;29;20116;-80
2020/12/25 07:18:42;;;;;;;3.83;2.13;;;1.40;99.90;;;;;;4914045;29;20048;-80
2020/12/25 07:21:08;;;;;;;3.97;2.50;;;1.40;99.90;;;;;;4898190;29;20051;-80
2020/12/25 07:23:44;;;;;;;6.43;2.90;;;1.40;99.90;;;;;;4870163;29;20052;-81
2020/12/25 07:26:17;;;;;;;5.10;3.22;;;1.40;99.90;;;;;;4879515;29;20104;-80
2020/12/25 07:28:50;;;;;;;3.63;2.60;;;1.50;99.90;;;;;;4879261;29;20045;-80
2020/12/25 07:31:22;;;;;;;4.40;2.50;;;1.50;99.90;;;;;;4864565;29;20558;-81
2020/12/25 07:33:55;;;;;;;5.22;2.80;;;1.50;99.90;;;;;;4864451;29;20045;-81
2020/12/25 07:36:24;;;;;;;4.40;2.72;;;1.50;99.90;;;;;;4879393;29;20488;-80
2020/12/25 07:39:00;;;;;;;7.28;2.72;;;1.60;99.90;;;;;;4879111;29;20076;-80
2020/12/25 07:41:35;;;;;;;3.78;2.80;;;1.70;99.90;;;;;;4879823;29;20045;-80
2020/12/25 07:44:07;;;;;;;3.90;2.90;;;1.60;99.90;;;;;;4894679;29;20052;-81
2020/12/25 07:46:42;;;;;;;3.50;2.78;;;1.60;99.90;;;;;;4880198;29;20555;-80
2020/12/25 07:49:14;;;;;;;3.78;2.42;;;1.60;99.90;;;;;;4898467;29;20072;-82
2020/12/25 07:51:42;;;;;;;3.60;2.60;;;1.60;99.90;;;;;;4884009;29;20055;-82
2020/12/25 07:59:26;;;;;;;4.25;3.05;;;1.70;99.90;;;;;;4875918;29;20058;-82
2020/12/25 08:05:16;;;;;;;4.40;2.58;;;1.70;99.90;;;;;;4900120;29;20140;-82
2020/12/25 08:07:43;;;;;;;4.32;2.78;;;1.70;99.90;;;;;;4884245;29;20049;-82
2020/12/25 08:10:13;;;;;;;4.55;3.10;;;1.70;99.90;;;;;;4901060;29;20178;-82
2020/12/25 08:12:49;;;;;;;4.75;3.17;;;1.70;99.90;;;;;;4896043;29;20059;-82
2020/12/25 08:15:18;;;;;;;6.88;3.92;;;1.80;99.90;;;;;;4882337;29;20106;-82
2020/12/25 08:17:48;;;;;;;30.10;15.48;;;1.80;99.90;;;;;;4884062;29;20048;-83
2020/12/25 08:20:15;;;;;;;45.85;21.80;;;1.80;99.90;;;;;;4887612;29;20101;-82
2020/12/25 08:22:42;;;;;;;136.23;57.50;;;1.70;99.90;;;;;;4887139;29;20065;-82
2020/12/25 08:28:26;;;;;;;108.40;44.28;;;1.80;99.90;;;;;;4903819;29;20052;-82
2020/12/25 08:31:18;;;;;;;126.97;52.15;;;1.80;99.90;;;;;;4895007;29;20424;-82
2020/12/25 08:34:33;;;;;;;12.80;6.80;;;1.90;99.90;;;;;;4871171;29;20113;-82
2020/12/25 08:37:53;;;;;;;7.55;4.63;;;1.90;99.90;;;;;;4881771;29;20144;-82
2020/12/25 08:40:55;;;;;;;6.43;3.80;;;1.80;99.90;;;;;;4887193;29;20089;-81
2020/12/25 08:44:36;;;;;;;4.43;2.78;;;1.90;99.90;;;;;;4870755;29;20130;-82
2020/12/25 08:48:19;;;;;;;4.78;3.03;;;2.00;99.90;;;;;;4901205;29;20056;-82
2020/12/25 08:52:33;;;;;;;4.25;2.72;;;2.00;99.90;;;;;;4907246;29;20044;-85
2020/12/25 08:55:27;;;;;;;4.05;2.60;;;2.00;99.90;;;;;;4890978;29;20059;-82
2020/12/25 08:58:01;;;;;;;3.30;2.28;;;2.00;99.90;;;;;;4884115;29;20049;-82
2020/12/25 09:00:31;;;;;;;4.00;2.83;;;2.10;99.90;;;;;;4897408;29;20044;-82
2020/12/25 09:03:07;;;;;;;5.07;3.25;;;2.10;99.90;;;;;;4913331;24;20064;-80
2020/12/25 09:05:34;;;;;;;4.38;2.60;;;2.00;99.90;;;;;;4870505;29;20041;-81
2020/12/25 09:08:01;;;;;;;3.78;2.88;;;2.00;99.90;;;;;;4898902;29;20055;-82
2020/12/25 09:10:30;;;;;;;3.03;2.00;;;2.00;99.90;;;;;;4883888;29;20105;-82
2020/12/25 09:12:57;;;;;;;3.88;2.42;;;2.00;99.90;;;;;;4894523;29;20065;-82
2020/12/25 09:15:23;;;;;;;3.90;2.80;;;2.00;99.90;;;;;;4879038;29;20064;-82
2020/12/25 09:17:55;;;;;;;4.68;3.15;;;2.00;99.90;;;;;;4878558;29;20049;-82
2020/12/25 09:20:27;;;;;;;7.68;3.60;;;2.00;99.90;;;;;;4878536;29;20508;-82
2020/12/25 09:23:25;;;;;;;4.53;2.95;;;2.10;99.90;;;;;;5144855;23;20016;-82
2020/12/25 09:25:58;;;;;;;4.13;3.00;;;2.00;99.90;;;;;;4880521;29;20504;-82
2020/12/25 09:28:26;;;;;;;5.18;3.20;;;2.10;99.90;;;;;;4881430;29;20056;-82
2020/12/25 09:30:58;;;;;;;3.90;2.58;;;2.10;99.90;;;;;;4882872;29;20507;-82
2020/12/25 09:33:30;;;;;;;4.88;3.28;;;2.10;99.90;;;;;;4886632;29;20056;-82
2020/12/25 09:35:58;;;;;;;4.18;2.95;;;2.00;99.90;;;;;;4878739;29;20106;-82
2020/12/25 09:38:29;;;;;;;5.88;3.13;;;2.00;99.90;;;;;;4880044;29;20049;-82
2020/12/25 09:40:56;;;;;;;5.55;3.40;;;2.10;99.90;;;;;;4879554;29;20135;-82
2020/12/25 09:43:23;;;;;;;4.70;2.85;;;2.10;99.90;;;;;;4879191;29;20045;-80
2020/12/25 09:45:50;;;;;;;5.90;3.42;;;2.20;99.90;;;;;;4879192;29;20053;-82
2020/12/25 09:48:21;;;;;;;15.60;8.07;;;2.20;99.90;;;;;;4868011;29;20422;-81
2020/12/25 09:50:48;;;;;;;17.27;7.95;;;2.10;99.90;;;;;;4896275;29;20479;-81
2020/12/25 09:53:15;;;;;;;7.22;4.53;;;2.20;99.90;;;;;;4866731;29;20535;-82
2020/12/25 09:55:48;;;;;;;7.13;4.03;;;2.20;99.90;;;;;;4866532;29;20528;-81
2020/12/25 09:58:20;;;;;;;9.68;5.90;;;2.20;99.90;;;;;;4883104;29;20049;-80
2020/12/25 10:00:48;;;;;;;67.05;32.55;;;2.20;99.90;;;;;;4882047;29;20097;-81
2020/12/25 10:03:15;;;;;;;38.63;19.35;;;2.40;99.90;;;;;;4886410;29;20080;-81
2020/12/25 10:05:42;;;;;;;12.85;9.48;;;2.40;99.90;;;;;;4882896;29;20045;-81
2020/12/25 10:08:09;;;;;;;4.43;2.72;;;2.50;99.90;;;;;;4880312;29;20053;-80
2020/12/25 10:10:35;;;;;;;3.53;2.50;;;2.40;99.90;;;;;;4880935;29;20583;-81
2020/12/25 10:13:07;;;;;;;3.45;1.88;;;2.40;99.90;;;;;;4866276;29;20529;-81
2020/12/25 10:15:35;;;;;;;3.47;2.40;;;2.50;99.90;;;;;;4881155;29;20041;-81
2020/12/25 10:18:02;;;;;;;3.03;2.30;;;2.50;99.90;;;;;;4865569;29;20053;-81
2020/12/25 10:20:29;;;;;;;4.68;3.58;;;2.50;99.90;;;;;;4881198;29;20048;-80
2020/12/25 10:22:55;;;;;;;2.65;2.15;;;2.50;99.90;;;;;;4880858;29;20073;-81
2020/12/25 10:25:22;;;;;;;5.30;4.65;;;2.50;99.90;;;;;;4865101;29;20247;-81
2020/12/25 10:27:49;;;;;;;3.08;2.33;;;2.50;99.90;;;;;;4896201;29;20056;-81
2020/12/25 10:30:16;;;;;;;5.22;3.55;;;2.60;99.90;;;;;;4880468;29;20556;-82
2020/12/25 10:32:47;;;;;;;4.53;3.60;;;2.60;99.90;;;;;;4881220;29;20056;-81
2020/12/25 10:35:14;;;;;;;5.85;3.55;;;2.70;99.90;;;;;;4865312;29;20052;-81
2020/12/25 10:37:46;;;;;;;5.15;3.05;;;2.70;99.90;;;;;;4895452;29;20424;-81
2020/12/25 10:40:12;;;;;;;3.15;2.50;;;2.70;99.90;;;;;;4895876;29;20064;-81
2020/12/25 10:42:44;;;;;;;5.60;3.53;;;2.70;99.90;;;;;;4913139;23;20084;-81
2020/12/25 10:45:11;;;;;;;4.50;3.67;;;2.70;99.90;;;;;;4880671;29;20076;-81
2020/12/25 10:47:42;;;;;;;4.93;3.42;;;2.80;99.90;;;;;;4880350;29;20060;-81
2020/12/25 10:50:14;;;;;;;4.55;2.85;;;2.70;99.90;;;;;;4881209;29;20041;-81
2020/12/25 10:52:45;;;;;;;5.57;3.03;;;2.70;99.90;;;;;;4895683;29;20049;-81
2020/12/25 10:55:17;;;;;;;4.60;3.10;;;2.70;99.90;;;;;;4865656;29;20051;-81
2020/12/25 10:57:49;;;;;;;5.13;3.40;;;2.70;99.90;;;;;;4880944;29;20132;-81
2020/12/25 11:00:15;;;;;;;3.47;2.65;;;2.80;99.90;;;;;;4864428;29;20053;-81
2020/12/25 11:02:42;;;;;;;3.97;3.03;;;2.80;99.90;;;;;;4864127;29;20367;-81
2020/12/25 11:05:15;;;;;;;5.57;2.95;;;2.80;99.90;;;;;;4880215;29;20049;-81
2020/12/25 11:07:41;;;;;;;4.65;2.97;;;2.90;99.90;;;;;;4879975;29;20053;-81
2020/12/25 11:10:13;;;;;;;4.78;3.25;;;2.90;99.90;;;;;;4880120;29;20131;-81
2020/12/25 11:12:44;;;;;;;5.47;3.42;;;2.90;99.90;;;;;;4880665;29;20049;-81
2020/12/25 11:15:11;;;;;;;6.05;3.78;;;2.90;99.90;;;;;;4879987;29;20056;-81
2020/12/25 11:17:43;;;;;;;4.57;3.03;;;2.80;99.90;;;;;;4865193;29;20057;-81
2020/12/25 11:20:14;;;;;;;5.68;3.67;;;2.80;99.90;;;;;;4864937;29;20056;-81
2020/12/25 11:22:41;;;;;;;5.63;3.95;;;2.80;99.90;;;;;;4879634;29;20078;-81
2020/12/25 11:25:12;;;;;;;6.50;3.33;;;2.80;99.90;;;;;;4895395;29;20140;-81
2020/12/25 11:27:44;;;;;;;5.95;3.53;;;2.80;99.90;;;;;;4880566;29;20046;-81
2020/12/25 11:30:16;;;;;;;6.18;3.63;;;2.90;99.90;;;;;;4895370;29;20147;-81
2020/12/25 11:32:42;;;;;;;6.30;4.07;;;2.90;99.90;;;;;;4879558;29;20500;-81
2020/12/25 11:35:09;;;;;;;5.10;3.40;;;3.00;99.90;;;;;;4879680;29;20109;-80
2020/12/25 11:37:41;;;;;;;5.72;4.10;;;3.00;99.90;;;;;;4895161;29;20136;-81
2020/12/25 11:40:13;;;;;;;7.93;3.95;;;3.00;99.90;;;;;;4879618;29;20057;-81
2020/12/25 11:42:39;;;;;;;6.70;3.30;;;3.10;99.90;;;;;;4879332;29;20045;-82
2020/12/25 11:45:11;;;;;;;5.13;3.50;;;3.00;99.90;;;;;;4879788;29;20072;-80
2020/12/25 11:47:37;;;;;;;5.40;3.17;;;3.00;99.90;;;;;;4879461;29;20052;-80
2020/12/25 11:50:04;;;;;;;4.75;3.53;;;3.10;99.90;;;;;;4879247;29;20041;-80
2020/12/25 11:52:32;;;;;;;4.85;3.35;;;3.10;99.90;;;;;;4879186;29;20037;-80
2020/12/25 11:55:03;;;;;;;6.22;3.28;;;3.10;99.90;;;;;;4879393;29;20041;-81
2020/12/25 11:57:30;;;;;;;6.22;4.25;;;3.20;99.90;;;;;;4879253;29;20048;-81
2020/12/25 11:59:57;;;;;;;5.57;4.07;;;3.10;99.90;;;;;;4879062;29;20520;-80
2020/12/25 12:02:30;;;;;;;;;;;3.10;99.90;;;;;;4879214;29;20432;-80
2020/12/25 12:05:02;;;;;;;4.85;3.22;;;3.10;99.90;;;;;;4879520;29;19992;-81
2020/12/25 12:07:29;;;;;;;5.72;3.88;;;3.10;99.90;;;;;;4878596;29;20057;-80
2020/12/25 12:10:01;;;;;;;6.15;3.45;;;3.10;99.90;;;;;;4878505;29;20117;-81
2020/12/25 12:12:32;;;;;;;5.50;3.55;;;3.00;99.90;;;;;;4887855;23;20047;-80
2020/12/25 12:15:04;;;;;;;5.85;3.60;;;3.00;99.90;;;;;;4897928;29;20392;-80
2020/12/25 12:17:31;;;;;;;5.78;3.90;;;2.90;99.90;;;;;;4881621;29;20522;-81
2020/12/25 12:20:03;;;;;;;5.07;3.42;;;2.80;99.90;;;;;;4897050;29;20072;-81
2020/12/25 12:22:30;;;;;;;5.97;3.70;;;2.80;99.90;;;;;;4920846;23;20067;-81
2020/12/25 12:24:57;;;;;;;7.28;4.20;;;2.80;99.90;;;;;;4881232;29;20400;-81
2020/12/25 12:27:28;;;;;;;5.95;3.75;;;2.80;99.90;;;;;;4914068;29;20090;-81
2020/12/25 12:29:55;;;;;;;6.72;3.97;;;2.80;99.90;;;;;;4900013;29;20092;-81
2020/12/25 12:32:27;;;;;;;6.13;4.45;;;2.80;99.90;;;;;;4915755;29;20050;-79
2020/12/25 12:34:59;;;;;;;7.68;4.45;;;2.80;99.90;;;;;;4900698;29;20036;-79
2020/12/25 12:37:30;;;;;;;6.72;4.15;;;2.90;99.90;;;;;;4915809;29;20088;-80
2020/12/25 12:39:57;;;;;;;5.10;3.90;;;2.90;99.90;;;;;;4915685;29;20056;-81
2020/12/25 12:42:24;;;;;;;4.88;3.40;;;2.90;99.90;;;;;;4900151;29;20048;-80
2020/12/25 12:44:55;;;;;;;6.25;4.43;;;2.90;99.90;;;;;;4900741;29;20063;-80
2020/12/25 12:47:22;;;;;;;5.82;4.35;;;2.80;99.90;;;;;;4899950;29;20052;-80
2020/12/25 12:49:54;;;;;;;6.28;4.13;;;2.80;99.90;;;;;;4900448;29;20048;-81
2020/12/25 12:52:25;;;;;;;7.00;5.13;;;2.70;99.90;;;;;;4900449;29;20036;-81
2020/12/25 12:54:57;;;;;;;7.43;5.00;;;2.70;99.90;;;;;;4916835;29;20123;-81
2020/12/25 12:57:24;;;;;;;8.00;4.55;;;2.60;99.90;;;;;;4915441;29;20052;-81
2020/12/25 12:59:55;;;;;;;6.13;4.22;;;2.60;99.90;;;;;;4915753;29;20048;-81
2020/12/25 13:02:27;;;;;;;9.88;5.30;;;2.60;99.90;;;;;;4915488;29;20056;-81
2020/12/25 13:04:58;;;;;;;11.27;6.00;;;2.50;99.90;;;;;;4900447;29;20047;-81
2020/12/25 13:07:26;;;;;;;8.23;5.00;;;2.50;99.90;;;;;;4899821;29;20044;-81
2020/12/25 13:09:57;;;;;;;7.85;5.30;;;2.60;99.90;;;;;;4900323;29;20048;-81
2020/12/25 13:12:29;;;;;;;8.40;5.75;;;2.50;99.90;;;;;;4900996;29;20103;-81
2020/12/25 13:14:56;;;;;;;7.28;4.95;;;2.50;99.90;;;;;;4899725;29;20646;-81
2020/12/25 13:17:28;;;;;;;9.48;6.10;;;2.60;99.90;;;;;;4900583;29;20048;-81
2020/12/25 13:19:59;;;;;;;7.88;5.15;;;2.60;99.90;;;;;;4916333;29;20064;-78
2020/12/25 13:22:30;;;;;;;8.23;5.30;;;2.70;99.90;;;;;;4918242;29;20048;-81
2020/12/25 13:25:30;;;;;;;6.70;4.20;;;2.80;99.90;;;;;;4919487;29;20138;-80
2020/12/25 13:27:58;;;;;;;6.07;4.30;;;2.80;99.90;;;;;;4899820;29;20053;-80
2020/12/25 13:30:26;;;;;;;5.57;4.05;;;2.70;99.90;;;;;;4899901;29;20055;-79